sensor_id;sensor_type;location;lat;lon;timestamp;P1;durP1;ratioP1;P2;durP2;ratioP2
19869;SDS011;10097;50.862;4.696;2023-09-12T00:00:16;15.73;;;7.78;;
19869;SDS011;10097;50.862;4.696;2023-09-12T00:02:44;15.85;;;9.50;;
19869;SDS011;10097;50.862;4.696;2023-09-12T00:05:10;17.33;;;9.50;;
19869;SDS011;10097;50.862;4.696;2023-09-12T00:07:36;14.40;;;8.60;;
19869;SDS011;10097;50.862;4.696;2023-09-12T00:10:05;16.05;;;8.38;;
19869;SDS011;10097;50.862;4.696;2023-09-12T00:12:31;15.75;;;8.73;;
19869;SDS011;10097;50.862;4.696;2023-09-12T00:14:56;15.27;;;8.30;;
19869;SDS011;10097;50.862;4.696;2023-09-12T00:17:24;15.15;;;8.23;;
19869;SDS011;10097;50.862;4.696;2023-09-12T00:19:51;16.13;;;8.52;;
19869;SDS011;10097;50.862;4.696;2023-09-12T00:22:17;13.93;;;7.68;;
19869;SDS011;10097;50.862;4.696;2023-09-12T00:24:43;13.07;;;8.18;;
19869;SDS011;10097;50.862;4.696;2023-09-12T00:27:08;19.98;;;8.50;;
19869;SDS011;10097;50.862;4.696;2023-09-12T00:29:34;14.35;;;7.07;;
19869;SDS011;10097;50.862;4.696;2023-09-12T00:32:00;14.73;;;8.82;;
19869;SDS011;10097;50.862;4.696;2023-09-12T00:34:25;17.27;;;8.90;;
19869;SDS011;10097;50.862;4.696;2023-09-12T00:36:51;19.50;;;9.77;;
19869;SDS011;10097;50.862;4.696;2023-09-12T00:39:17;17.17;;;9.52;;
19869;SDS011;10097;50.862;4.696;2023-09-12T00:41:45;21.35;;;10.15;;
19869;SDS011;10097;50.862;4.696;2023-09-12T00:44:11;18.48;;;9.45;;
19869;SDS011;10097;50.862;4.696;2023-09-12T00:46:39;17.50;;;9.55;;
19869;SDS011;10097;50.862;4.696;2023-09-12T00:49:05;18.92;;;9.98;;
19869;SDS011;10097;50.862;4.696;2023-09-12T00:51:33;20.33;;;10.13;;
19869;SDS011;10097;50.862;4.696;2023-09-12T00:53:59;15.75;;;9.38;;
19869;SDS011;10097;50.862;4.696;2023-09-12T00:56:28;16.63;;;9.68;;
19869;SDS011;10097;50.862;4.696;2023-09-12T00:58:54;15.93;;;9.38;;
19869;SDS011;10097;50.862;4.696;2023-09-12T01:01:20;17.40;;;9.25;;
19869;SDS011;10097;50.862;4.696;2023-09-12T01:03:47;17.52;;;10.00;;
19869;SDS011;10097;50.862;4.696;2023-09-12T01:06:17;20.40;;;10.43;;
19869;SDS011;10097;50.862;4.696;2023-09-12T01:08:46;22.33;;;9.60;;
19869;SDS011;10097;50.862;4.696;2023-09-12T01:11:12;17.05;;;9.55;;
19869;SDS011;10097;50.862;4.696;2023-09-12T01:13:39;18.02;;;9.63;;
19869;SDS011;10097;50.862;4.696;2023-09-12T01:16:05;18.20;;;10.00;;
19869;SDS011;10097;50.862;4.696;2023-09-12T01:18:31;19.60;;;10.65;;
19869;SDS011;10097;50.862;4.696;2023-09-12T01:21:21;23.73;;;10.07;;
19869;SDS011;10097;50.862;4.696;2023-09-12T01:24:15;22.33;;;9.73;;
19869;SDS011;10097;50.862;4.696;2023-09-12T01:30:00;13.13;;;8.45;;
19869;SDS011;10097;50.862;4.696;2023-09-12T01:32:29;16.73;;;8.68;;
19869;SDS011;10097;50.862;4.696;2023-09-12T01:34:59;17.13;;;10.13;;
19869;SDS011;10097;50.862;4.696;2023-09-12T01:37:25;17.20;;;9.13;;
19869;SDS011;10097;50.862;4.696;2023-09-12T01:39:58;20.10;;;9.02;;
19869;SDS011;10097;50.862;4.696;2023-09-12T01:42:24;17.08;;;9.00;;
19869;SDS011;10097;50.862;4.696;2023-09-12T01:45:00;17.73;;;10.52;;
19869;SDS011;10097;50.862;4.696;2023-09-12T01:47:27;22.65;;;13.32;;
19869;SDS011;10097;50.862;4.696;2023-09-12T01:49:57;21.58;;;12.25;;
19869;SDS011;10097;50.862;4.696;2023-09-12T01:52:27;26.65;;;13.40;;
19869;SDS011;10097;50.862;4.696;2023-09-12T01:54:53;22.25;;;12.35;;
19869;SDS011;10097;50.862;4.696;2023-09-12T01:57:22;17.98;;;11.07;;
19869;SDS011;10097;50.862;4.696;2023-09-12T01:59:48;22.27;;;11.77;;
19869;SDS011;10097;50.862;4.696;2023-09-12T02:02:18;19.77;;;11.35;;
19869;SDS011;10097;50.862;4.696;2023-09-12T02:04:47;24.75;;;11.65;;
19869;SDS011;10097;50.862;4.696;2023-09-12T02:07:27;17.33;;;10.63;;
19869;SDS011;10097;50.862;4.696;2023-09-12T02:09:58;21.92;;;11.02;;
19869;SDS011;10097;50.862;4.696;2023-09-12T02:12:25;17.35;;;10.90;;
19869;SDS011;10097;50.862;4.696;2023-09-12T02:14:51;17.42;;;10.02;;
19869;SDS011;10097;50.862;4.696;2023-09-12T02:17:17;19.38;;;11.05;;
19869;SDS011;10097;50.862;4.696;2023-09-12T02:19:50;17.10;;;10.40;;
19869;SDS011;10097;50.862;4.696;2023-09-12T02:22:16;18.15;;;9.60;;
19869;SDS011;10097;50.862;4.696;2023-09-12T02:24:41;16.20;;;8.98;;
19869;SDS011;10097;50.862;4.696;2023-09-12T02:27:10;16.17;;;9.60;;
19869;SDS011;10097;50.862;4.696;2023-09-12T02:29:35;17.05;;;10.05;;
19869;SDS011;10097;50.862;4.696;2023-09-12T02:32:03;17.77;;;9.90;;
19869;SDS011;10097;50.862;4.696;2023-09-12T02:34:32;17.65;;;8.88;;
19869;SDS011;10097;50.862;4.696;2023-09-12T02:37:02;17.50;;;9.88;;
19869;SDS011;10097;50.862;4.696;2023-09-12T02:39:28;20.23;;;9.18;;
19869;SDS011;10097;50.862;4.696;2023-09-12T02:41:54;15.60;;;8.52;;
19869;SDS011;10097;50.862;4.696;2023-09-12T02:44:20;16.83;;;9.20;;
19869;SDS011;10097;50.862;4.696;2023-09-12T02:46:45;16.95;;;7.68;;
19869;SDS011;10097;50.862;4.696;2023-09-12T02:49:13;12.32;;;7.72;;
19869;SDS011;10097;50.862;4.696;2023-09-12T02:51:42;15.55;;;7.90;;
19869;SDS011;10097;50.862;4.696;2023-09-12T02:54:10;16.17;;;8.38;;
19869;SDS011;10097;50.862;4.696;2023-09-12T02:56:50;16.95;;;8.55;;
19869;SDS011;10097;50.862;4.696;2023-09-12T02:59:18;16.35;;;8.38;;
19869;SDS011;10097;50.862;4.696;2023-09-12T03:01:44;16.77;;;8.82;;
19869;SDS011;10097;50.862;4.696;2023-09-12T03:04:10;16.25;;;8.98;;
19869;SDS011;10097;50.862;4.696;2023-09-12T03:06:40;19.13;;;11.13;;
19869;SDS011;10097;50.862;4.696;2023-09-12T03:09:06;18.50;;;11.32;;
19869;SDS011;10097;50.862;4.696;2023-09-12T03:11:44;23.33;;;12.43;;
19869;SDS011;10097;50.862;4.696;2023-09-12T03:14:13;24.85;;;12.35;;
19869;SDS011;10097;50.862;4.696;2023-09-12T03:16:38;22.38;;;12.60;;
19869;SDS011;10097;50.862;4.696;2023-09-12T03:19:07;20.85;;;12.48;;
19869;SDS011;10097;50.862;4.696;2023-09-12T03:21:33;27.30;;;13.25;;
19869;SDS011;10097;50.862;4.696;2023-09-12T03:24:06;18.73;;;12.18;;
19869;SDS011;10097;50.862;4.696;2023-09-12T03:26:35;21.77;;;12.20;;
19869;SDS011;10097;50.862;4.696;2023-09-12T03:29:02;21.40;;;12.07;;
19869;SDS011;10097;50.862;4.696;2023-09-12T03:31:28;23.40;;;11.93;;
19869;SDS011;10097;50.862;4.696;2023-09-12T03:33:54;19.58;;;11.13;;
19869;SDS011;10097;50.862;4.696;2023-09-12T03:36:19;19.70;;;11.40;;
19869;SDS011;10097;50.862;4.696;2023-09-12T03:38:45;20.45;;;11.10;;
19869;SDS011;10097;50.862;4.696;2023-09-12T03:41:11;21.88;;;11.85;;
19869;SDS011;10097;50.862;4.696;2023-09-12T03:43:37;21.13;;;12.52;;
19869;SDS011;10097;50.862;4.696;2023-09-12T03:46:05;26.85;;;11.82;;
19869;SDS011;10097;50.862;4.696;2023-09-12T03:48:31;21.63;;;12.85;;
19869;SDS011;10097;50.862;4.696;2023-09-12T03:50:57;23.40;;;14.02;;
19869;SDS011;10097;50.862;4.696;2023-09-12T03:53:23;24.58;;;13.57;;
19869;SDS011;10097;50.862;4.696;2023-09-12T03:55:51;24.30;;;13.70;;
19869;SDS011;10097;50.862;4.696;2023-09-12T03:58:17;25.45;;;13.95;;
19869;SDS011;10097;50.862;4.696;2023-09-12T04:00:43;24.45;;;13.32;;
19869;SDS011;10097;50.862;4.696;2023-09-12T04:03:12;22.45;;;13.27;;
19869;SDS011;10097;50.862;4.696;2023-09-12T04:05:41;23.38;;;14.27;;
19869;SDS011;10097;50.862;4.696;2023-09-12T04:08:10;29.30;;;14.80;;
19869;SDS011;10097;50.862;4.696;2023-09-12T04:10:35;28.00;;;14.05;;
19869;SDS011;10097;50.862;4.696;2023-09-12T04:13:01;26.40;;;16.17;;
19869;SDS011;10097;50.862;4.696;2023-09-12T04:15:32;34.25;;;18.38;;
19869;SDS011;10097;50.862;4.696;2023-09-12T04:18:03;48.85;;;25.48;;
19869;SDS011;10097;50.862;4.696;2023-09-12T04:20:31;52.13;;;25.83;;
19869;SDS011;10097;50.862;4.696;2023-09-12T04:23:02;52.08;;;23.98;;
19869;SDS011;10097;50.862;4.696;2023-09-12T04:25:29;44.42;;;23.77;;
19869;SDS011;10097;50.862;4.696;2023-09-12T04:27:57;54.10;;;26.13;;
19869;SDS011;10097;50.862;4.696;2023-09-12T04:30:23;45.78;;;24.35;;
19869;SDS011;10097;50.862;4.696;2023-09-12T04:32:49;44.72;;;24.98;;
19869;SDS011;10097;50.862;4.696;2023-09-12T04:35:17;48.75;;;24.67;;
19869;SDS011;10097;50.862;4.696;2023-09-12T04:37:46;46.72;;;24.17;;
19869;SDS011;10097;50.862;4.696;2023-09-12T04:40:15;44.92;;;23.10;;
19869;SDS011;10097;50.862;4.696;2023-09-12T04:42:46;43.65;;;22.75;;
19869;SDS011;10097;50.862;4.696;2023-09-12T04:45:13;39.80;;;21.33;;
19869;SDS011;10097;50.862;4.696;2023-09-12T04:47:39;38.30;;;20.90;;
19869;SDS011;10097;50.862;4.696;2023-09-12T04:50:08;39.00;;;21.95;;
19869;SDS011;10097;50.862;4.696;2023-09-12T04:52:36;36.95;;;20.50;;
19869;SDS011;10097;50.862;4.696;2023-09-12T04:55:02;39.22;;;20.67;;
19869;SDS011;10097;50.862;4.696;2023-09-12T04:57:30;41.20;;;20.88;;
19869;SDS011;10097;50.862;4.696;2023-09-12T05:00:06;39.15;;;20.20;;
19869;SDS011;10097;50.862;4.696;2023-09-12T05:02:35;37.75;;;20.13;;
19869;SDS011;10097;50.862;4.696;2023-09-12T05:05:01;42.50;;;23.15;;
19869;SDS011;10097;50.862;4.696;2023-09-12T05:07:31;48.10;;;23.38;;
19869;SDS011;10097;50.862;4.696;2023-09-12T05:10:04;46.55;;;23.05;;
19869;SDS011;10097;50.862;4.696;2023-09-12T05:12:30;49.78;;;22.50;;
19869;SDS011;10097;50.862;4.696;2023-09-12T05:14:56;49.40;;;25.70;;
19869;SDS011;10097;50.862;4.696;2023-09-12T05:17:21;48.53;;;23.15;;
19869;SDS011;10097;50.862;4.696;2023-09-12T05:19:50;40.88;;;22.25;;
19869;SDS011;10097;50.862;4.696;2023-09-12T05:22:21;48.22;;;23.65;;
19869;SDS011;10097;50.862;4.696;2023-09-12T05:24:52;47.58;;;24.55;;
19869;SDS011;10097;50.862;4.696;2023-09-12T05:27:27;44.95;;;22.48;;
19869;SDS011;10097;50.862;4.696;2023-09-12T05:29:56;43.47;;;21.98;;
19869;SDS011;10097;50.862;4.696;2023-09-12T05:32:24;41.70;;;21.50;;
19869;SDS011;10097;50.862;4.696;2023-09-12T05:35:03;43.53;;;20.67;;
19869;SDS011;10097;50.862;4.696;2023-09-12T05:37:31;38.03;;;21.15;;
19869;SDS011;10097;50.862;4.696;2023-09-12T05:39:59;44.10;;;22.70;;
19869;SDS011;10097;50.862;4.696;2023-09-12T05:42:25;44.38;;;22.33;;
19869;SDS011;10097;50.862;4.696;2023-09-12T05:44:51;44.65;;;22.20;;
19869;SDS011;10097;50.862;4.696;2023-09-12T05:47:18;42.40;;;22.00;;
19869;SDS011;10097;50.862;4.696;2023-09-12T05:49:44;45.70;;;21.95;;
19869;SDS011;10097;50.862;4.696;2023-09-12T05:52:11;41.67;;;21.98;;
19869;SDS011;10097;50.862;4.696;2023-09-12T05:54:36;45.05;;;21.75;;
19869;SDS011;10097;50.862;4.696;2023-09-12T05:57:05;48.80;;;24.40;;
19869;SDS011;10097;50.862;4.696;2023-09-12T05:59:31;46.75;;;24.58;;
19869;SDS011;10097;50.862;4.696;2023-09-12T06:02:07;51.53;;;25.85;;
19869;SDS011;10097;50.862;4.696;2023-09-12T06:04:36;55.67;;;26.02;;
19869;SDS011;10097;50.862;4.696;2023-09-12T06:07:02;50.00;;;25.98;;
19869;SDS011;10097;50.862;4.696;2023-09-12T06:09:32;52.53;;;25.15;;
19869;SDS011;10097;50.862;4.696;2023-09-12T06:11:58;54.08;;;24.60;;
19869;SDS011;10097;50.862;4.696;2023-09-12T06:14:24;50.03;;;24.70;;
19869;SDS011;10097;50.862;4.696;2023-09-12T06:16:49;59.97;;;25.67;;
19869;SDS011;10097;50.862;4.696;2023-09-12T06:19:17;49.03;;;24.23;;
19869;SDS011;10097;50.862;4.696;2023-09-12T06:21:46;49.55;;;24.85;;
19869;SDS011;10097;50.862;4.696;2023-09-12T06:24:19;50.47;;;25.25;;
19869;SDS011;10097;50.862;4.696;2023-09-12T06:26:51;54.65;;;27.30;;
19869;SDS011;10097;50.862;4.696;2023-09-12T06:29:22;52.92;;;24.73;;
19869;SDS011;10097;50.862;4.696;2023-09-12T06:31:48;49.08;;;25.23;;
19869;SDS011;10097;50.862;4.696;2023-09-12T06:34:21;55.05;;;25.52;;
19869;SDS011;10097;50.862;4.696;2023-09-12T06:36:47;50.58;;;25.83;;
19869;SDS011;10097;50.862;4.696;2023-09-12T06:39:13;54.85;;;27.38;;
19869;SDS011;10097;50.862;4.696;2023-09-12T06:41:38;62.08;;;28.95;;
19869;SDS011;10097;50.862;4.696;2023-09-12T06:44:09;70.30;;;31.60;;
19869;SDS011;10097;50.862;4.696;2023-09-12T06:46:38;70.13;;;32.58;;
19869;SDS011;10097;50.862;4.696;2023-09-12T06:49:03;75.95;;;33.60;;
19869;SDS011;10097;50.862;4.696;2023-09-12T06:51:29;81.65;;;35.63;;
19869;SDS011;10097;50.862;4.696;2023-09-12T06:53:57;72.95;;;34.28;;
19869;SDS011;10097;50.862;4.696;2023-09-12T06:56:23;84.32;;;36.60;;
19869;SDS011;10097;50.862;4.696;2023-09-12T06:58:55;83.97;;;35.63;;
19869;SDS011;10097;50.862;4.696;2023-09-12T07:01:21;77.28;;;37.22;;
19869;SDS011;10097;50.862;4.696;2023-09-12T07:03:46;64.03;;;33.45;;
19869;SDS011;10097;50.862;4.696;2023-09-12T07:06:13;63.60;;;32.63;;
19869;SDS011;10097;50.862;4.696;2023-09-12T07:08:39;63.83;;;33.55;;
19869;SDS011;10097;50.862;4.696;2023-09-12T07:11:05;82.28;;;36.72;;
19869;SDS011;10097;50.862;4.696;2023-09-12T07:13:31;78.57;;;37.63;;
19869;SDS011;10097;50.862;4.696;2023-09-12T07:16:05;68.72;;;34.85;;
19869;SDS011;10097;50.862;4.696;2023-09-12T07:18:33;75.68;;;36.63;;
19869;SDS011;10097;50.862;4.696;2023-09-12T07:21:02;76.13;;;37.33;;
19869;SDS011;10097;50.862;4.696;2023-09-12T07:23:31;66.93;;;34.65;;
19869;SDS011;10097;50.862;4.696;2023-09-12T07:25:57;62.78;;;33.97;;
19869;SDS011;10097;50.862;4.696;2023-09-12T07:28:24;52.17;;;30.30;;
19869;SDS011;10097;50.862;4.696;2023-09-12T07:30:50;58.95;;;30.67;;
19869;SDS011;10097;50.862;4.696;2023-09-12T07:33:16;54.08;;;29.70;;
19869;SDS011;10097;50.862;4.696;2023-09-12T07:35:42;55.25;;;30.73;;
19869;SDS011;10097;50.862;4.696;2023-09-12T07:38:07;54.95;;;29.13;;
19869;SDS011;10097;50.862;4.696;2023-09-12T07:40:33;45.15;;;26.85;;
19869;SDS011;10097;50.862;4.696;2023-09-12T07:42:59;58.05;;;31.33;;
19869;SDS011;10097;50.862;4.696;2023-09-12T07:45:24;55.92;;;32.45;;
19869;SDS011;10097;50.862;4.696;2023-09-12T07:47:50;62.25;;;33.33;;
19869;SDS011;10097;50.862;4.696;2023-09-12T07:50:16;55.53;;;32.20;;
19869;SDS011;10097;50.862;4.696;2023-09-12T07:52:42;56.75;;;30.92;;
19869;SDS011;10097;50.862;4.696;2023-09-12T07:55:08;54.13;;;28.75;;
19869;SDS011;10097;50.862;4.696;2023-09-12T07:57:34;49.03;;;25.75;;
19869;SDS011;10097;50.862;4.696;2023-09-12T08:00:00;40.40;;;24.15;;
19869;SDS011;10097;50.862;4.696;2023-09-12T08:02:26;38.65;;;22.95;;
19869;SDS011;10097;50.862;4.696;2023-09-12T08:04:52;40.97;;;21.20;;
19869;SDS011;10097;50.862;4.696;2023-09-12T08:07:20;38.10;;;20.73;;
19869;SDS011;10097;50.862;4.696;2023-09-12T08:09:50;35.03;;;20.30;;
19869;SDS011;10097;50.862;4.696;2023-09-12T08:12:23;36.03;;;20.20;;
19869;SDS011;10097;50.862;4.696;2023-09-12T08:14:55;32.03;;;19.20;;
19869;SDS011;10097;50.862;4.696;2023-09-12T08:17:21;35.75;;;20.88;;
19869;SDS011;10097;50.862;4.696;2023-09-12T08:19:48;35.60;;;21.13;;
19869;SDS011;10097;50.862;4.696;2023-09-12T08:22:14;39.45;;;22.85;;
19869;SDS011;10097;50.862;4.696;2023-09-12T08:24:39;34.45;;;18.48;;
19869;SDS011;10097;50.862;4.696;2023-09-12T08:27:05;37.22;;;20.42;;
19869;SDS011;10097;50.862;4.696;2023-09-12T08:29:32;39.83;;;20.95;;
19869;SDS011;10097;50.862;4.696;2023-09-12T08:31:58;38.85;;;22.13;;
19869;SDS011;10097;50.862;4.696;2023-09-12T08:34:25;40.90;;;22.02;;
19869;SDS011;10097;50.862;4.696;2023-09-12T08:36:50;43.83;;;23.70;;
19869;SDS011;10097;50.862;4.696;2023-09-12T08:39:17;39.95;;;23.42;;
19869;SDS011;10097;50.862;4.696;2023-09-12T08:41:48;41.83;;;22.33;;
19869;SDS011;10097;50.862;4.696;2023-09-12T08:44:15;40.30;;;22.38;;
19869;SDS011;10097;50.862;4.696;2023-09-12T08:46:44;40.58;;;23.35;;
19869;SDS011;10097;50.862;4.696;2023-09-12T08:49:10;49.75;;;25.35;;
19869;SDS011;10097;50.862;4.696;2023-09-12T08:51:39;39.80;;;23.48;;
19869;SDS011;10097;50.862;4.696;2023-09-12T08:54:05;38.83;;;23.52;;
19869;SDS011;10097;50.862;4.696;2023-09-12T08:56:35;38.92;;;22.60;;
19869;SDS011;10097;50.862;4.696;2023-09-12T08:59:04;37.40;;;21.38;;
19869;SDS011;10097;50.862;4.696;2023-09-12T09:01:31;36.88;;;20.08;;
19869;SDS011;10097;50.862;4.696;2023-09-12T09:03:57;29.27;;;16.35;;
19869;SDS011;10097;50.862;4.696;2023-09-12T09:06:25;31.35;;;16.52;;
19869;SDS011;10097;50.862;4.696;2023-09-12T09:08:52;33.70;;;17.85;;
19869;SDS011;10097;50.862;4.696;2023-09-12T09:11:18;27.63;;;16.48;;
19869;SDS011;10097;50.862;4.696;2023-09-12T09:13:44;28.48;;;15.75;;
19869;SDS011;10097;50.862;4.696;2023-09-12T09:16:13;25.63;;;14.63;;
19869;SDS011;10097;50.862;4.696;2023-09-12T09:19:02;26.55;;;13.77;;
19869;SDS011;10097;50.862;4.696;2023-09-12T09:21:36;24.45;;;13.15;;
19869;SDS011;10097;50.862;4.696;2023-09-12T09:24:09;21.45;;;12.13;;
19869;SDS011;10097;50.862;4.696;2023-09-12T09:26:41;21.95;;;11.85;;
19869;SDS011;10097;50.862;4.696;2023-09-12T09:29:15;24.77;;;12.18;;
19869;SDS011;10097;50.862;4.696;2023-09-12T09:31:43;18.65;;;8.43;;
19869;SDS011;10097;50.862;4.696;2023-09-12T09:34:11;17.17;;;8.20;;
19869;SDS011;10097;50.862;4.696;2023-09-12T09:36:42;15.45;;;7.03;;
19869;SDS011;10097;50.862;4.696;2023-09-12T09:39:18;19.15;;;8.55;;
19869;SDS011;10097;50.862;4.696;2023-09-12T09:41:49;17.38;;;7.30;;
19869;SDS011;10097;50.862;4.696;2023-09-12T09:44:17;18.38;;;9.35;;
19869;SDS011;10097;50.862;4.696;2023-09-12T09:46:43;16.58;;;9.55;;
19869;SDS011;10097;50.862;4.696;2023-09-12T09:49:10;20.88;;;11.05;;
19869;SDS011;10097;50.862;4.696;2023-09-12T09:51:43;18.05;;;9.45;;
19869;SDS011;10097;50.862;4.696;2023-09-12T09:54:10;19.15;;;9.80;;
19869;SDS011;10097;50.862;4.696;2023-09-12T09:56:49;16.05;;;8.27;;
19869;SDS011;10097;50.862;4.696;2023-09-12T09:59:24;13.90;;;7.82;;
19869;SDS011;10097;50.862;4.696;2023-09-12T10:01:53;20.23;;;8.13;;
19869;SDS011;10097;50.862;4.696;2023-09-12T10:04:22;14.70;;;7.40;;
19869;SDS011;10097;50.862;4.696;2023-09-12T10:06:48;15.75;;;6.75;;
19869;SDS011;10097;50.862;4.696;2023-09-12T10:09:15;15.38;;;8.15;;
19869;SDS011;10097;50.862;4.696;2023-09-12T10:11:45;20.83;;;10.48;;
19869;SDS011;10097;50.862;4.696;2023-09-12T10:14:13;18.05;;;8.95;;
19869;SDS011;10097;50.862;4.696;2023-09-12T10:16:47;15.57;;;7.22;;
19869;SDS011;10097;50.862;4.696;2023-09-12T10:24:30;16.15;;;8.48;;
19869;SDS011;10097;50.862;4.696;2023-09-12T10:26:57;16.35;;;8.85;;
19869;SDS011;10097;50.862;4.696;2023-09-12T10:29:25;16.10;;;7.43;;
19869;SDS011;10097;50.862;4.696;2023-09-12T10:31:51;14.38;;;7.13;;
19869;SDS011;10097;50.862;4.696;2023-09-12T10:34:16;15.85;;;6.90;;
19869;SDS011;10097;50.862;4.696;2023-09-12T10:36:48;17.45;;;7.88;;
19869;SDS011;10097;50.862;4.696;2023-09-12T10:39:17;15.35;;;7.68;;
19869;SDS011;10097;50.862;4.696;2023-09-12T10:41:48;15.25;;;8.50;;
19869;SDS011;10097;50.862;4.696;2023-09-12T10:44:19;17.70;;;8.68;;
19869;SDS011;10097;50.862;4.696;2023-09-12T10:46:46;15.98;;;8.00;;
19869;SDS011;10097;50.862;4.696;2023-09-12T10:49:14;17.08;;;8.70;;
19869;SDS011;10097;50.862;4.696;2023-09-12T10:51:45;17.98;;;9.57;;
19869;SDS011;10097;50.862;4.696;2023-09-12T10:57:10;14.93;;;9.00;;
19869;SDS011;10097;50.862;4.696;2023-09-12T11:00:23;15.95;;;8.85;;
19869;SDS011;10097;50.862;4.696;2023-09-12T11:02:28;12.80;;;6.57;;
19869;SDS011;10097;50.862;4.696;2023-09-12T11:04:58;13.48;;;5.60;;
19869;SDS011;10097;50.862;4.696;2023-09-12T11:10:24;14.43;;;8.30;;
19869;SDS011;10097;50.862;4.696;2023-09-12T11:12:54;15.85;;;7.13;;
19869;SDS011;10097;50.862;4.696;2023-09-12T11:15:22;14.35;;;5.97;;
19869;SDS011;10097;50.862;4.696;2023-09-12T11:17:49;17.08;;;7.90;;
19869;SDS011;10097;50.862;4.696;2023-09-12T11:20:25;16.70;;;8.23;;
19869;SDS011;10097;50.862;4.696;2023-09-12T11:22:50;17.27;;;8.40;;
19869;SDS011;10097;50.862;4.696;2023-09-12T11:25:19;16.30;;;8.25;;
19869;SDS011;10097;50.862;4.696;2023-09-12T11:30:19;14.13;;;6.88;;
19869;SDS011;10097;50.862;4.696;2023-09-12T11:32:52;13.35;;;7.10;;
19869;SDS011;10097;50.862;4.696;2023-09-12T11:35:25;13.10;;;7.28;;
19869;SDS011;10097;50.862;4.696;2023-09-12T11:37:57;13.90;;;6.43;;
19869;SDS011;10097;50.862;4.696;2023-09-12T11:43:05;15.00;;;6.25;;
19869;SDS011;10097;50.862;4.696;2023-09-12T11:45:31;13.75;;;6.60;;
19869;SDS011;10097;50.862;4.696;2023-09-12T11:47:58;16.75;;;6.10;;
19869;SDS011;10097;50.862;4.696;2023-09-12T11:53:07;12.90;;;5.45;;
19869;SDS011;10097;50.862;4.696;2023-09-12T11:55:37;11.63;;;6.28;;
19869;SDS011;10097;50.862;4.696;2023-09-12T11:58:11;13.77;;;5.97;;
19869;SDS011;10097;50.862;4.696;2023-09-12T12:00:42;13.68;;;6.20;;
19869;SDS011;10097;50.862;4.696;2023-09-12T12:03:15;14.57;;;6.20;;
19869;SDS011;10097;50.862;4.696;2023-09-12T12:05:41;15.48;;;5.85;;
19869;SDS011;10097;50.862;4.696;2023-09-12T12:08:08;9.85;;;4.68;;
19869;SDS011;10097;50.862;4.696;2023-09-12T12:10:37;10.65;;;5.38;;
19869;SDS011;10097;50.862;4.696;2023-09-12T12:13:16;12.77;;;4.93;;
19869;SDS011;10097;50.862;4.696;2023-09-12T12:15:42;13.85;;;5.18;;
19869;SDS011;10097;50.862;4.696;2023-09-12T12:18:10;8.13;;;4.30;;
19869;SDS011;10097;50.862;4.696;2023-09-12T12:20:36;10.05;;;5.13;;
19869;SDS011;10097;50.862;4.696;2023-09-12T12:23:02;9.13;;;4.50;;
19869;SDS011;10097;50.862;4.696;2023-09-12T12:25:31;9.88;;;4.22;;
19869;SDS011;10097;50.862;4.696;2023-09-12T12:28:03;9.98;;;4.30;;
19869;SDS011;10097;50.862;4.696;2023-09-12T12:30:33;9.50;;;5.13;;
19869;SDS011;10097;50.862;4.696;2023-09-12T12:33:07;11.18;;;5.60;;
19869;SDS011;10097;50.862;4.696;2023-09-12T12:35:33;10.07;;;4.43;;
19869;SDS011;10097;50.862;4.696;2023-09-12T12:38:02;9.68;;;4.00;;
19869;SDS011;10097;50.862;4.696;2023-09-12T12:40:28;8.98;;;4.32;;
19869;SDS011;10097;50.862;4.696;2023-09-12T12:42:53;12.18;;;6.03;;
19869;SDS011;10097;50.862;4.696;2023-09-12T12:45:21;13.15;;;6.20;;
19869;SDS011;10097;50.862;4.696;2023-09-12T12:47:56;14.65;;;7.00;;
19869;SDS011;10097;50.862;4.696;2023-09-12T12:50:23;16.10;;;7.15;;
19869;SDS011;10097;50.862;4.696;2023-09-12T12:52:49;13.68;;;6.75;;
19869;SDS011;10097;50.862;4.696;2023-09-12T12:55:15;14.13;;;7.28;;
19869;SDS011;10097;50.862;4.696;2023-09-12T12:57:42;13.93;;;7.00;;
19869;SDS011;10097;50.862;4.696;2023-09-12T13:00:09;15.75;;;6.82;;
19869;SDS011;10097;50.862;4.696;2023-09-12T13:02:38;11.13;;;6.95;;
19869;SDS011;10097;50.862;4.696;2023-09-12T13:05:06;13.75;;;6.25;;
19869;SDS011;10097;50.862;4.696;2023-09-12T13:07:44;12.85;;;6.65;;
19869;SDS011;10097;50.862;4.696;2023-09-12T13:10:12;10.52;;;5.05;;
19869;SDS011;10097;50.862;4.696;2023-09-12T13:12:38;11.48;;;5.53;;
19869;SDS011;10097;50.862;4.696;2023-09-12T13:15:04;12.30;;;6.05;;
19869;SDS011;10097;50.862;4.696;2023-09-12T13:17:30;13.25;;;6.60;;
19869;SDS011;10097;50.862;4.696;2023-09-12T13:19:56;12.63;;;6.63;;
19869;SDS011;10097;50.862;4.696;2023-09-12T13:22:21;11.93;;;7.10;;
19869;SDS011;10097;50.862;4.696;2023-09-12T13:24:47;17.48;;;7.13;;
19869;SDS011;10097;50.862;4.696;2023-09-12T13:27:13;12.23;;;6.40;;
19869;SDS011;10097;50.862;4.696;2023-09-12T13:29:39;15.70;;;7.85;;
19869;SDS011;10097;50.862;4.696;2023-09-12T13:32:05;16.13;;;9.50;;
19869;SDS011;10097;50.862;4.696;2023-09-12T13:34:37;15.13;;;8.20;;
19869;SDS011;10097;50.862;4.696;2023-09-12T13:37:03;17.80;;;8.73;;
19869;SDS011;10097;50.862;4.696;2023-09-12T13:39:29;15.00;;;9.05;;
19869;SDS011;10097;50.862;4.696;2023-09-12T13:41:54;16.45;;;8.77;;
19869;SDS011;10097;50.862;4.696;2023-09-12T13:44:22;18.73;;;9.05;;
19869;SDS011;10097;50.862;4.696;2023-09-12T13:46:48;21.65;;;9.35;;
19869;SDS011;10097;50.862;4.696;2023-09-12T13:49:16;16.88;;;7.95;;
19869;SDS011;10097;50.862;4.696;2023-09-12T13:51:42;15.70;;;8.00;;
19869;SDS011;10097;50.862;4.696;2023-09-12T13:54:08;15.40;;;7.88;;
19869;SDS011;10097;50.862;4.696;2023-09-12T13:56:39;15.70;;;8.65;;
19869;SDS011;10097;50.862;4.696;2023-09-12T13:59:05;14.68;;;7.88;;
19869;SDS011;10097;50.862;4.696;2023-09-12T14:01:31;14.50;;;7.72;;
19869;SDS011;10097;50.862;4.696;2023-09-12T14:04:03;14.95;;;7.93;;
19869;SDS011;10097;50.862;4.696;2023-09-12T14:06:32;16.67;;;9.23;;
19869;SDS011;10097;50.862;4.696;2023-09-12T14:08:59;19.05;;;7.90;;
19869;SDS011;10097;50.862;4.696;2023-09-12T14:11:25;15.38;;;7.38;;
19869;SDS011;10097;50.862;4.696;2023-09-12T14:13:50;16.95;;;7.88;;
19869;SDS011;10097;50.862;4.696;2023-09-12T14:16:16;15.35;;;7.55;;
19869;SDS011;10097;50.862;4.696;2023-09-12T14:18:42;13.95;;;7.55;;
19869;SDS011;10097;50.862;4.696;2023-09-12T14:21:07;12.95;;;7.97;;
19869;SDS011;10097;50.862;4.696;2023-09-12T14:23:35;14.70;;;7.72;;
19869;SDS011;10097;50.862;4.696;2023-09-12T14:26:01;15.75;;;7.53;;
19869;SDS011;10097;50.862;4.696;2023-09-12T14:28:27;18.70;;;8.02;;
19869;SDS011;10097;50.862;4.696;2023-09-12T14:30:53;19.52;;;7.90;;
19869;SDS011;10097;50.862;4.696;2023-09-12T14:33:20;15.32;;;8.18;;
19869;SDS011;10097;50.862;4.696;2023-09-12T14:35:46;13.40;;;7.35;;
19869;SDS011;10097;50.862;4.696;2023-09-12T14:38:12;14.35;;;7.65;;
19869;SDS011;10097;50.862;4.696;2023-09-12T14:40:38;13.00;;;7.20;;
19869;SDS011;10097;50.862;4.696;2023-09-12T14:43:05;12.73;;;7.28;;
19869;SDS011;10097;50.862;4.696;2023-09-12T14:45:33;16.33;;;7.97;;
19869;SDS011;10097;50.862;4.696;2023-09-12T14:48:03;13.38;;;7.05;;
19869;SDS011;10097;50.862;4.696;2023-09-12T14:50:32;13.88;;;6.68;;
19869;SDS011;10097;50.862;4.696;2023-09-12T14:52:58;13.32;;;6.90;;
19869;SDS011;10097;50.862;4.696;2023-09-12T14:55:26;13.45;;;6.93;;